Jordan, MT

3:54 PM MST on December 08, 2016 (GMT -0700)
Wokal-Glasgow International | | Change Station
Active Advisory: Wind Chill Advisory

Elev 2293 ft 48.21 °N, 106.62 °W | Updated 1 hour ago

Clear
Clear
5 °F
Feels Like -2 °F
N
4
Wind Variable Wind from NW

Today
High -- | Low -- °F
--% Chance of Precip.
Yesterday
High -- | Low -- °F
Precip. -- in
Pressure 30.77 in
Visibility 10.0 miles
Clouds Few 1900 ft
Windchill -2 °F
Dew Point -4 °F
Humidity 66%
Rainfall 0.00 in
Snow Depth Not available.
7:42 AM 4:17 PM
Waxing Gibbous, 67% visible
METAR KGGW 082153Z AUTO 31003KT 10SM FEW019 M15/M20 A3058 RMK AO2 SLP418 T11501200
Pressure 30.77 in
Visibility 10.0 miles
Clouds Few 1900 ft
Windchill -2 °F
Dew Point -4 °F
Humidity 66%
Rainfall 0.00 in
Snow Depth Not available.
7:42 AM 4:17 PM
Waxing Gibbous, 67% visible
METAR KGGW 082153Z AUTO 31003KT 10SM FEW019 M15/M20 A3058 RMK AO2 SLP418 T11501200

10-Day Weather Forecast

Almanac

Astronomy

Dec. 08, 2016 Rise Set
Actual Time
Civil Twilight
Nautical Twilight
Astronomical Twilight
Moon
Length of Visible Light
Length of Day
Tomorrow will be .
, % of the Moon is Illuminated

Today's Extremes

State Highs State Lows

Community

WunderPhotos

Upload Photos

1,956,277 photos uploaded!

WunderBlog® & News

Nearby

Air Quality

  Air Quality AQ Index Pollutant
Not available.

Snow Depth

Station Depth Elevation

Earthquake Activity

City Distance Mag. Time & Date
Minimum magnitude displayed is 2.5.

Coastal Water Temperatures

Place Temperature

Stations

Nearby Weather Stations

Station Location Temp. Windchill Dew Point Humidity Wind Precip. Elev Updated Type
                   

Watches & Warnings

Wind Chill Advisory
Issued: 11:59 AM MST Dec. 8, 2016 – National Weather Service

... Wind Chill Advisory in effect from 6 PM this evening to noon
MST Friday...

The National Weather Service in Glasgow has issued a Wind Chill
Advisory... which is in effect from 6 PM this evening to noon MST
Friday.

* Winds... east 5 to 15 mph.

* Temperatures... 9 below to 3 above zero.

* Wind chill... 20 to 30 below.

* Impacts... exposed skin can be frostbitten after 30 minutes of
exposure.


Precautionary/preparedness actions...

Try to dress adequately. Be sure to wear layered light weight and
wind proof clothing... and wear a hat and mittens for protection
from the dangers of frostbite.